sensor_id;sensor_type;location;lat;lon;timestamp;pressure;altitude;pressure_sealevel;temperature;humidity
73936;BME280;62287;50.858;0.252;2023-04-15T00:00:20;100502.26;;;12.74;37.30
73936;BME280;62287;50.858;0.252;2023-04-15T00:00:51;100499.68;;;13.13;37.32
73936;BME280;62287;50.858;0.252;2023-04-15T00:01:22;100500.29;;;12.66;37.34
73936;BME280;62287;50.858;0.252;2023-04-15T00:01:53;100500.01;;;12.61;37.38
73936;BME280;62287;50.858;0.252;2023-04-15T00:02:24;100502.83;;;12.64;37.43
73936;BME280;62287;50.858;0.252;2023-04-15T00:02:55;100500.95;;;12.63;37.52
73936;BME280;62287;50.858;0.252;2023-04-15T00:03:26;100505.71;;;12.98;37.30
73936;BME280;62287;50.858;0.252;2023-04-15T00:03:58;100501.93;;;12.57;37.41
73936;BME280;62287;50.858;0.252;2023-04-15T00:04:29;100503.82;;;13.31;37.40
73936;BME280;62287;50.858;0.252;2023-04-15T00:05:00;100507.36;;;12.99;37.44
73936;BME280;62287;50.858;0.252;2023-04-15T00:05:31;100509.14;;;12.59;37.48
73936;BME280;62287;50.858;0.252;2023-04-15T00:06:07;100506.60;;;12.91;37.36
73936;BME280;62287;50.858;0.252;2023-04-15T00:06:38;100506.58;;;12.57;37.29
73936;BME280;62287;50.858;0.252;2023-04-15T00:07:09;100506.56;;;12.71;37.29
73936;BME280;62287;50.858;0.252;2023-04-15T00:07:40;100509.26;;;12.81;37.29
73936;BME280;62287;50.858;0.252;2023-04-15T00:08:11;100506.59;;;12.89;37.31
73936;BME280;62287;50.858;0.252;2023-04-15T00:08:41;100509.65;;;12.43;37.57
73936;BME280;62287;50.858;0.252;2023-04-15T00:09:12;100507.75;;;12.45;37.55
73936;BME280;62287;50.858;0.252;2023-04-15T00:09:43;100507.33;;;12.29;37.63
73936;BME280;62287;50.858;0.252;2023-04-15T00:10:14;100510.14;;;12.05;37.90
73936;BME280;62287;50.858;0.252;2023-04-15T00:10:45;100511.50;;;12.55;37.60
73936;BME280;62287;50.858;0.252;2023-04-15T00:11:16;100512.69;;;12.85;37.51
73936;BME280;62287;50.858;0.252;2023-04-15T00:11:47;100511.05;;;12.51;37.48
73936;BME280;62287;50.858;0.252;2023-04-15T00:12:20;100512.08;;;12.17;37.65
73936;BME280;62287;50.858;0.252;2023-04-15T00:12:51;100512.88;;;12.35;37.60
73936;BME280;62287;50.858;0.252;2023-04-15T00:13:22;100512.49;;;12.70;37.58
73936;BME280;62287;50.858;0.252;2023-04-15T00:13:53;100516.08;;;12.69;37.64
73936;BME280;62287;50.858;0.252;2023-04-15T00:14:24;100515.22;;;13.05;37.55
73936;BME280;62287;50.858;0.252;2023-04-15T00:14:55;100516.48;;;12.56;37.47
73936;BME280;62287;50.858;0.252;2023-04-15T00:15:26;100517.26;;;12.50;37.50
73936;BME280;62287;50.858;0.252;2023-04-15T00:15:57;100519.87;;;13.23;37.58
73936;BME280;62287;50.858;0.252;2023-04-15T00:16:28;100520.96;;;12.37;37.63
73936;BME280;62287;50.858;0.252;2023-04-15T00:16:59;100522.43;;;12.79;37.54
73936;BME280;62287;50.858;0.252;2023-04-15T00:17:30;100521.13;;;13.08;37.48
73936;BME280;62287;50.858;0.252;2023-04-15T00:18:01;100521.88;;;12.35;37.46
73936;BME280;62287;50.858;0.252;2023-04-15T00:18:32;100525.31;;;13.15;37.53
73936;BME280;62287;50.858;0.252;2023-04-15T00:19:02;100523.17;;;12.69;37.62
73936;BME280;62287;50.858;0.252;2023-04-15T00:19:33;100523.27;;;12.30;37.63
73936;BME280;62287;50.858;0.252;2023-04-15T00:20:05;100524.26;;;12.75;37.60
73936;BME280;62287;50.858;0.252;2023-04-15T00:20:36;100525.48;;;13.01;37.67
73936;BME280;62287;50.858;0.252;2023-04-15T00:21:07;100525.84;;;13.09;37.55
73936;BME280;62287;50.858;0.252;2023-04-15T00:21:38;100523.53;;;13.41;37.37
73936;BME280;62287;50.858;0.252;2023-04-15T00:22:09;100524.19;;;12.64;37.51
73936;BME280;62287;50.858;0.252;2023-04-15T00:22:40;100526.55;;;12.70;37.60
73936;BME280;62287;50.858;0.252;2023-04-15T00:23:11;100526.75;;;12.38;37.46
73936;BME280;62287;50.858;0.252;2023-04-15T00:23:42;100530.63;;;12.38;37.41
73936;BME280;62287;50.858;0.252;2023-04-15T00:24:13;100526.26;;;12.40;37.48
73936;BME280;62287;50.858;0.252;2023-04-15T00:24:44;100529.66;;;13.18;37.40
73936;BME280;62287;50.858;0.252;2023-04-15T00:25:15;100529.49;;;12.65;37.25
73936;BME280;62287;50.858;0.252;2023-04-15T00:25:46;100526.66;;;12.98;37.31
73936;BME280;62287;50.858;0.252;2023-04-15T00:26:17;100528.00;;;13.43;37.25
73936;BME280;62287;50.858;0.252;2023-04-15T00:26:48;100531.09;;;12.96;37.31
73936;BME280;62287;50.858;0.252;2023-04-15T00:27:19;100530.15;;;12.53;37.43
73936;BME280;62287;50.858;0.252;2023-04-15T00:27:50;100532.41;;;12.99;37.33
73936;BME280;62287;50.858;0.252;2023-04-15T00:28:21;100532.59;;;13.19;37.43
73936;BME280;62287;50.858;0.252;2023-04-15T00:28:52;100533.23;;;12.88;37.40
73936;BME280;62287;50.858;0.252;2023-04-15T00:29:23;100533.87;;;12.90;37.33
73936;BME280;62287;50.858;0.252;2023-04-15T00:29:54;100534.58;;;13.08;37.11
73936;BME280;62287;50.858;0.252;2023-04-15T00:30:24;100536.61;;;13.04;37.17
73936;BME280;62287;50.858;0.252;2023-04-15T00:30:55;100534.74;;;12.81;37.41
73936;BME280;62287;50.858;0.252;2023-04-15T00:31:26;100535.65;;;12.86;37.40
73936;BME280;62287;50.858;0.252;2023-04-15T00:31:57;100536.44;;;13.07;37.23
73936;BME280;62287;50.858;0.252;2023-04-15T00:32:28;100535.99;;;12.92;37.31
73936;BME280;62287;50.858;0.252;2023-04-15T00:32:59;100537.14;;;13.00;37.28
73936;BME280;62287;50.858;0.252;2023-04-15T00:33:31;100538.01;;;13.40;37.33
73936;BME280;62287;50.858;0.252;2023-04-15T00:34:01;100539.50;;;12.46;37.44
73936;BME280;62287;50.858;0.252;2023-04-15T00:34:33;100537.86;;;12.90;37.44
73936;BME280;62287;50.858;0.252;2023-04-15T00:35:04;100536.90;;;13.02;37.31
73936;BME280;62287;50.858;0.252;2023-04-15T00:35:35;100539.64;;;12.54;37.28
73936;BME280;62287;50.858;0.252;2023-04-15T00:36:07;100539.24;;;12.66;37.64
73936;BME280;62287;50.858;0.252;2023-04-15T00:36:38;100537.71;;;12.19;37.98
73936;BME280;62287;50.858;0.252;2023-04-15T00:37:09;100537.98;;;11.84;37.98
73936;BME280;62287;50.858;0.252;2023-04-15T00:37:40;100536.61;;;12.16;38.18
73936;BME280;62287;50.858;0.252;2023-04-15T00:38:11;100534.39;;;12.57;38.03
73936;BME280;62287;50.858;0.252;2023-04-15T00:38:42;100535.97;;;12.21;38.15
73936;BME280;62287;50.858;0.252;2023-04-15T00:39:13;100532.50;;;12.04;38.19
73936;BME280;62287;50.858;0.252;2023-04-15T00:39:44;100536.50;;;12.14;38.28
73936;BME280;62287;50.858;0.252;2023-04-15T00:40:17;100533.92;;;12.61;38.22
73936;BME280;62287;50.858;0.252;2023-04-15T00:40:49;100537.28;;;11.73;38.40
73936;BME280;62287;50.858;0.252;2023-04-15T00:41:20;100537.14;;;12.54;38.34
73936;BME280;62287;50.858;0.252;2023-04-15T00:41:51;100537.46;;;12.26;38.51
73936;BME280;62287;50.858;0.252;2023-04-15T00:42:24;100538.76;;;11.97;38.41
73936;BME280;62287;50.858;0.252;2023-04-15T00:42:55;100535.32;;;12.60;38.24
73936;BME280;62287;50.858;0.252;2023-04-15T00:43:26;100538.70;;;12.38;38.35
73936;BME280;62287;50.858;0.252;2023-04-15T00:43:57;100537.86;;;12.15;38.58
73936;BME280;62287;50.858;0.252;2023-04-15T00:44:28;100539.53;;;12.36;38.39
73936;BME280;62287;50.858;0.252;2023-04-15T00:44:59;100539.04;;;11.94;38.41
73936;BME280;62287;50.858;0.252;2023-04-15T00:45:30;100540.57;;;11.78;38.55
73936;BME280;62287;50.858;0.252;2023-04-15T00:46:03;100539.66;;;11.70;38.68
73936;BME280;62287;50.858;0.252;2023-04-15T00:46:36;100543.17;;;12.20;38.67
73936;BME280;62287;50.858;0.252;2023-04-15T00:47:08;100545.49;;;12.19;38.79
73936;BME280;62287;50.858;0.252;2023-04-15T00:47:41;100543.95;;;11.60;38.61
73936;BME280;62287;50.858;0.252;2023-04-15T00:48:13;100544.47;;;12.93;38.14
73936;BME280;62287;50.858;0.252;2023-04-15T00:48:44;100544.22;;;12.84;38.09
73936;BME280;62287;50.858;0.252;2023-04-15T00:49:16;100544.30;;;12.83;38.19
73936;BME280;62287;50.858;0.252;2023-04-15T00:49:47;100546.71;;;12.59;38.03
73936;BME280;62287;50.858;0.252;2023-04-15T00:50:18;100549.29;;;12.17;38.00
73936;BME280;62287;50.858;0.252;2023-04-15T00:50:49;100547.56;;;12.82;38.15
73936;BME280;62287;50.858;0.252;2023-04-15T00:51:20;100550.37;;;12.51;38.10
73936;BME280;62287;50.858;0.252;2023-04-15T00:51:51;100549.41;;;12.84;38.11
73936;BME280;62287;50.858;0.252;2023-04-15T00:52:21;100552.01;;;12.83;38.09
73936;BME280;62287;50.858;0.252;2023-04-15T00:52:53;100553.83;;;12.62;38.19
73936;BME280;62287;50.858;0.252;2023-04-15T00:53:24;100553.17;;;12.67;38.15
73936;BME280;62287;50.858;0.252;2023-04-15T00:53:55;100558.82;;;12.63;38.24
73936;BME280;62287;50.858;0.252;2023-04-15T00:54:26;100558.03;;;12.59;38.26
73936;BME280;62287;50.858;0.252;2023-04-15T00:54:57;100558.83;;;12.36;38.19
73936;BME280;62287;50.858;0.252;2023-04-15T00:55:28;100557.61;;;12.88;38.02
73936;BME280;62287;50.858;0.252;2023-04-15T00:55:59;100557.93;;;12.78;38.08
73936;BME280;62287;50.858;0.252;2023-04-15T00:56:30;100557.97;;;12.53;38.10
73936;BME280;62287;50.858;0.252;2023-04-15T00:57:05;100562.35;;;12.18;38.27
73936;BME280;62287;50.858;0.252;2023-04-15T00:57:36;100560.95;;;11.73;38.33
73936;BME280;62287;50.858;0.252;2023-04-15T00:58:08;100562.95;;;12.50;38.33
73936;BME280;62287;50.858;0.252;2023-04-15T00:58:39;100564.98;;;12.25;38.32
73936;BME280;62287;50.858;0.252;2023-04-15T00:59:10;100561.11;;;13.07;38.02
73936;BME280;62287;50.858;0.252;2023-04-15T00:59:41;100562.39;;;13.23;37.75
73936;BME280;62287;50.858;0.252;2023-04-15T01:00:13;100564.75;;;13.10;37.88
73936;BME280;62287;50.858;0.252;2023-04-15T01:00:44;100565.50;;;12.68;37.88
73936;BME280;62287;50.858;0.252;2023-04-15T01:01:15;100564.06;;;12.77;37.64
73936;BME280;62287;50.858;0.252;2023-04-15T01:01:47;100562.62;;;12.56;37.94
73936;BME280;62287;50.858;0.252;2023-04-15T01:02:18;100565.12;;;12.88;37.92
73936;BME280;62287;50.858;0.252;2023-04-15T01:02:50;100567.66;;;13.39;37.54
73936;BME280;62287;50.858;0.252;2023-04-15T01:03:21;100568.31;;;12.75;38.07
73936;BME280;62287;50.858;0.252;2023-04-15T01:03:52;100567.50;;;12.13;37.95
73936;BME280;62287;50.858;0.252;2023-04-15T01:04:23;100568.45;;;13.03;37.72
73936;BME280;62287;50.858;0.252;2023-04-15T01:04:55;100570.12;;;12.64;38.19
73936;BME280;62287;50.858;0.252;2023-04-15T01:05:27;100571.91;;;12.14;38.32
73936;BME280;62287;50.858;0.252;2023-04-15T01:05:59;100572.97;;;12.45;38.10
73936;BME280;62287;50.858;0.252;2023-04-15T01:06:30;100571.73;;;13.00;37.95
73936;BME280;62287;50.858;0.252;2023-04-15T01:07:01;100573.29;;;12.85;38.05
73936;BME280;62287;50.858;0.252;2023-04-15T01:07:32;100571.36;;;13.01;37.55
73936;BME280;62287;50.858;0.252;2023-04-15T01:08:03;100571.16;;;13.08;37.83
73936;BME280;62287;50.858;0.252;2023-04-15T01:08:34;100571.94;;;13.06;37.73
73936;BME280;62287;50.858;0.252;2023-04-15T01:09:05;100572.14;;;12.95;37.55
73936;BME280;62287;50.858;0.252;2023-04-15T01:09:36;100574.67;;;13.53;37.44
73936;BME280;62287;50.858;0.252;2023-04-15T01:10:08;100572.59;;;13.57;37.19
73936;BME280;62287;50.858;0.252;2023-04-15T01:10:39;100573.63;;;13.07;37.54
73936;BME280;62287;50.858;0.252;2023-04-15T01:11:12;100577.01;;;12.37;37.87
73936;BME280;62287;50.858;0.252;2023-04-15T01:11:43;100575.16;;;13.32;37.51
73936;BME280;62287;50.858;0.252;2023-04-15T01:12:16;100577.58;;;13.27;37.51
73936;BME280;62287;50.858;0.252;2023-04-15T01:12:47;100579.07;;;12.76;37.33
73936;BME280;62287;50.858;0.252;2023-04-15T01:13:18;100578.27;;;13.59;37.31
73936;BME280;62287;50.858;0.252;2023-04-15T01:13:50;100577.29;;;13.61;37.21
73936;BME280;62287;50.858;0.252;2023-04-15T01:14:21;100578.38;;;13.03;37.25
73936;BME280;62287;50.858;0.252;2023-04-15T01:14:52;100580.08;;;13.07;37.16
73936;BME280;62287;50.858;0.252;2023-04-15T01:15:24;100579.85;;;13.68;37.17
73936;BME280;62287;50.858;0.252;2023-04-15T01:15:56;100583.70;;;13.93;36.98
73936;BME280;62287;50.858;0.252;2023-04-15T01:16:27;100580.16;;;12.71;37.64
73936;BME280;62287;50.858;0.252;2023-04-15T01:16:58;100582.12;;;12.72;37.62
73936;BME280;62287;50.858;0.252;2023-04-15T01:17:29;100583.78;;;12.72;37.59
73936;BME280;62287;50.858;0.252;2023-04-15T01:18:01;100584.03;;;13.23;37.63
73936;BME280;62287;50.858;0.252;2023-04-15T01:18:33;100586.56;;;12.18;37.90
73936;BME280;62287;50.858;0.252;2023-04-15T01:19:04;100587.72;;;12.72;37.84
73936;BME280;62287;50.858;0.252;2023-04-15T01:19:36;100590.73;;;12.40;37.91
73936;BME280;62287;50.858;0.252;2023-04-15T01:20:07;100590.15;;;12.98;37.88
73936;BME280;62287;50.858;0.252;2023-04-15T01:20:38;100592.12;;;12.16;37.97
73936;BME280;62287;50.858;0.252;2023-04-15T01:21:10;100591.91;;;12.78;38.08
73936;BME280;62287;50.858;0.252;2023-04-15T01:21:41;100594.53;;;12.52;37.98
73936;BME280;62287;50.858;0.252;2023-04-15T01:22:12;100595.10;;;11.98;38.27
73936;BME280;62287;50.858;0.252;2023-04-15T01:22:43;100593.27;;;12.55;37.76
73936;BME280;62287;50.858;0.252;2023-04-15T01:23:15;100598.39;;;12.67;37.80
73936;BME280;62287;50.858;0.252;2023-04-15T01:23:47;100594.59;;;12.77;37.83
73936;BME280;62287;50.858;0.252;2023-04-15T01:24:18;100596.91;;;13.30;37.33
73936;BME280;62287;50.858;0.252;2023-04-15T01:24:54;100594.45;;;13.24;37.60
73936;BME280;62287;50.858;0.252;2023-04-15T01:25:31;100596.95;;;12.88;37.89
73936;BME280;62287;50.858;0.252;2023-04-15T01:26:02;100597.73;;;12.34;37.91
73936;BME280;62287;50.858;0.252;2023-04-15T01:26:33;100594.77;;;12.93;37.54
73936;BME280;62287;50.858;0.252;2023-04-15T01:27:04;100597.78;;;13.42;37.17
73936;BME280;62287;50.858;0.252;2023-04-15T01:27:38;100595.53;;;13.30;37.58
73936;BME280;62287;50.858;0.252;2023-04-15T01:28:11;100597.94;;;12.79;37.31
73936;BME280;62287;50.858;0.252;2023-04-15T01:28:42;100600.51;;;13.68;37.25
73936;BME280;62287;50.858;0.252;2023-04-15T01:29:13;100601.11;;;14.02;36.96
73936;BME280;62287;50.858;0.252;2023-04-15T01:29:44;100602.99;;;12.98;37.03
73936;BME280;62287;50.858;0.252;2023-04-15T01:30:15;100603.54;;;13.00;37.04
73936;BME280;62287;50.858;0.252;2023-04-15T01:30:46;100601.18;;;13.62;37.19
73936;BME280;62287;50.858;0.252;2023-04-15T01:31:17;100603.05;;;12.75;37.64
73936;BME280;62287;50.858;0.252;2023-04-15T01:31:50;100602.97;;;13.58;37.30
73936;BME280;62287;50.858;0.252;2023-04-15T01:32:20;100603.60;;;13.12;37.54
73936;BME280;62287;50.858;0.252;2023-04-15T01:32:51;100605.97;;;13.67;37.27
73936;BME280;62287;50.858;0.252;2023-04-15T01:33:22;100605.77;;;13.19;37.19
73936;BME280;62287;50.858;0.252;2023-04-15T01:33:53;100604.34;;;13.00;37.43
73936;BME280;62287;50.858;0.252;2023-04-15T01:34:24;100605.06;;;12.69;37.45
73936;BME280;62287;50.858;0.252;2023-04-15T01:34:55;100610.73;;;12.82;37.32
73936;BME280;62287;50.858;0.252;2023-04-15T01:35:26;100609.14;;;13.18;37.22
73936;BME280;62287;50.858;0.252;2023-04-15T01:35:57;100610.47;;;13.28;37.54
73936;BME280;62287;50.858;0.252;2023-04-15T01:36:28;100611.30;;;12.11;37.75
73936;BME280;62287;50.858;0.252;2023-04-15T01:37:00;100611.42;;;11.98;37.99
73936;BME280;62287;50.858;0.252;2023-04-15T01:37:31;100613.88;;;12.33;37.89
73936;BME280;62287;50.858;0.252;2023-04-15T01:38:05;100613.84;;;12.48;37.60
73936;BME280;62287;50.858;0.252;2023-04-15T01:38:37;100612.81;;;13.14;37.41
73936;BME280;62287;50.858;0.252;2023-04-15T01:39:08;100617.35;;;13.53;37.04
73936;BME280;62287;50.858;0.252;2023-04-15T01:39:39;100616.87;;;13.94;36.90
73936;BME280;62287;50.858;0.252;2023-04-15T01:40:10;100615.32;;;12.46;37.54
73936;BME280;62287;50.858;0.252;2023-04-15T01:40:41;100618.68;;;13.24;37.09
73936;BME280;62287;50.858;0.252;2023-04-15T01:41:12;100619.31;;;13.64;36.91
73936;BME280;62287;50.858;0.252;2023-04-15T01:41:43;100618.46;;;12.74;37.16
73936;BME280;62287;50.858;0.252;2023-04-15T01:42:14;100620.59;;;13.15;37.25
73936;BME280;62287;50.858;0.252;2023-04-15T01:42:45;100623.67;;;13.31;37.16
73936;BME280;62287;50.858;0.252;2023-04-15T01:43:16;100624.43;;;13.12;37.53
73936;BME280;62287;50.858;0.252;2023-04-15T01:43:47;100623.71;;;12.55;37.80
73936;BME280;62287;50.858;0.252;2023-04-15T01:44:18;100625.18;;;12.78;37.94
73936;BME280;62287;50.858;0.252;2023-04-15T01:44:49;100625.05;;;12.91;37.91
73936;BME280;62287;50.858;0.252;2023-04-15T01:45:20;100627.28;;;12.63;38.12
73936;BME280;62287;50.858;0.252;2023-04-15T01:45:51;100629.62;;;12.51;38.31
73936;BME280;62287;50.858;0.252;2023-04-15T01:46:22;100629.61;;;12.56;38.23
73936;BME280;62287;50.858;0.252;2023-04-15T01:46:53;100630.24;;;12.52;37.98
73936;BME280;62287;50.858;0.252;2023-04-15T01:47:24;100630.44;;;11.97;38.08
73936;BME280;62287;50.858;0.252;2023-04-15T01:47:55;100632.62;;;12.18;38.35
73936;BME280;62287;50.858;0.252;2023-04-15T01:48:26;100632.81;;;13.06;37.98
73936;BME280;62287;50.858;0.252;2023-04-15T01:48:57;100632.82;;;12.93;37.93
73936;BME280;62287;50.858;0.252;2023-04-15T01:49:28;100632.14;;;12.86;37.58
73936;BME280;62287;50.858;0.252;2023-04-15T01:49:59;100632.24;;;13.10;37.71
73936;BME280;62287;50.858;0.252;2023-04-15T01:50:30;100633.02;;;12.77;37.94
73936;BME280;62287;50.858;0.252;2023-04-15T01:51:01;100633.41;;;12.54;37.89
73936;BME280;62287;50.858;0.252;2023-04-15T01:51:32;100632.99;;;12.27;38.14
73936;BME280;62287;50.858;0.252;2023-04-15T01:52:03;100634.61;;;12.78;38.09
73936;BME280;62287;50.858;0.252;2023-04-15T01:52:33;100633.68;;;12.73;37.78
73936;BME280;62287;50.858;0.252;2023-04-15T01:53:04;100635.23;;;13.22;37.60
73936;BME280;62287;50.858;0.252;2023-04-15T01:53:35;100633.89;;;13.37;37.25
73936;BME280;62287;50.858;0.252;2023-04-15T01:54:06;100635.83;;;13.50;37.29
73936;BME280;62287;50.858;0.252;2023-04-15T01:54:37;100637.70;;;11.86;38.11
73936;BME280;62287;50.858;0.252;2023-04-15T01:55:10;100636.07;;;12.42;37.81
73936;BME280;62287;50.858;0.252;2023-04-15T01:55:41;100637.06;;;13.08;37.47
73936;BME280;62287;50.858;0.252;2023-04-15T01:56:12;100639.18;;;12.79;37.30
73936;BME280;62287;50.858;0.252;2023-04-15T01:56:43;100638.77;;;13.38;37.37
73936;BME280;62287;50.858;0.252;2023-04-15T01:57:14;100640.54;;;12.53;37.80
73936;BME280;62287;50.858;0.252;2023-04-15T01:57:45;100641.98;;;12.69;37.98
73936;BME280;62287;50.858;0.252;2023-04-15T01:58:16;100640.73;;;12.65;38.19
73936;BME280;62287;50.858;0.252;2023-04-15T01:58:47;100641.36;;;12.28;38.11
73936;BME280;62287;50.858;0.252;2023-04-15T01:59:18;100643.07;;;12.52;38.33
73936;BME280;62287;50.858;0.252;2023-04-15T01:59:49;100646.55;;;11.59;38.54
73936;BME280;62287;50.858;0.252;2023-04-15T02:00:20;100643.29;;;12.29;38.21
73936;BME280;62287;50.858;0.252;2023-04-15T02:00:51;100640.34;;;12.94;37.64
73936;BME280;62287;50.858;0.252;2023-04-15T02:01:22;100641.30;;;13.14;37.68
73936;BME280;62287;50.858;0.252;2023-04-15T02:01:53;100641.53;;;12.83;38.02
73936;BME280;62287;50.858;0.252;2023-04-15T02:02:24;100642.92;;;12.28;38.17
73936;BME280;62287;50.858;0.252;2023-04-15T02:02:55;100644.07;;;12.72;38.08
73936;BME280;62287;50.858;0.252;2023-04-15T02:03:28;100646.47;;;12.39;38.40
73936;BME280;62287;50.858;0.252;2023-04-15T02:03:58;100646.03;;;11.95;38.49
73936;BME280;62287;50.858;0.252;2023-04-15T02:04:30;100644.50;;;12.00;38.49
73936;BME280;62287;50.858;0.252;2023-04-15T02:05:01;100642.03;;;12.68;37.90
73936;BME280;62287;50.858;0.252;2023-04-15T02:05:32;100643.03;;;13.10;37.54
73936;BME280;62287;50.858;0.252;2023-04-15T02:06:03;100642.28;;;12.94;37.67
73936;BME280;62287;50.858;0.252;2023-04-15T02:06:33;100643.19;;;12.98;37.76
73936;BME280;62287;50.858;0.252;2023-04-15T02:07:04;100643.18;;;12.15;37.84
73936;BME280;62287;50.858;0.252;2023-04-15T02:07:35;100645.79;;;11.75;38.13
73936;BME280;62287;50.858;0.252;2023-04-15T02:08:06;100646.63;;;12.81;37.71
73936;BME280;62287;50.858;0.252;2023-04-15T02:08:37;100648.54;;;12.71;37.68
73936;BME280;62287;50.858;0.252;2023-04-15T02:09:09;100647.66;;;13.13;37.43
73936;BME280;62287;50.858;0.252;2023-04-15T02:09:40;100651.96;;;13.12;37.33
73936;BME280;62287;50.858;0.252;2023-04-15T02:10:11;100652.47;;;13.10;37.57
73936;BME280;62287;50.858;0.252;2023-04-15T02:10:42;100653.04;;;12.70;37.68
73936;BME280;62287;50.858;0.252;2023-04-15T02:11:13;100656.20;;;12.72;37.67
73936;BME280;62287;50.858;0.252;2023-04-15T02:11:44;100655.56;;;12.77;37.88
73936;BME280;62287;50.858;0.252;2023-04-15T02:12:16;100655.73;;;12.88;37.95
73936;BME280;62287;50.858;0.252;2023-04-15T02:12:47;100658.18;;;12.50;37.97
73936;BME280;62287;50.858;0.252;2023-04-15T02:13:18;100661.40;;;12.36;37.74
73936;BME280;62287;50.858;0.252;2023-04-15T02:13:49;100661.61;;;12.78;37.90
73936;BME280;62287;50.858;0.252;2023-04-15T02:14:20;100665.30;;;12.11;37.91
73936;BME280;62287;50.858;0.252;2023-04-15T02:14:51;100668.05;;;12.82;37.65
73936;BME280;62287;50.858;0.252;2023-04-15T02:15:22;100670.79;;;12.39;38.02
73936;BME280;62287;50.858;0.252;2023-04-15T02:15:54;100669.71;;;12.76;38.08
73936;BME280;62287;50.858;0.252;2023-04-15T02:16:25;100670.27;;;12.90;37.89
73936;BME280;62287;50.858;0.252;2023-04-15T02:16:56;100670.83;;;12.77;37.74
73936;BME280;62287;50.858;0.252;2023-04-15T02:17:27;100673.84;;;12.50;37.96
73936;BME280;62287;50.858;0.252;2023-04-15T02:17:58;100676.93;;;12.13;38.20
73936;BME280;62287;50.858;0.252;2023-04-15T02:18:29;100674.44;;;12.25;38.10
73936;BME280;62287;50.858;0.252;2023-04-15T02:19:00;100674.18;;;13.07;37.64
73936;BME280;62287;50.858;0.252;2023-04-15T02:19:31;100674.40;;;12.58;37.57
73936;BME280;62287;50.858;0.252;2023-04-15T02:20:02;100674.96;;;13.18;37.35
73936;BME280;62287;50.858;0.252;2023-04-15T02:20:33;100675.92;;;12.44;37.48
73936;BME280;62287;50.858;0.252;2023-04-15T02:21:04;100676.88;;;12.80;37.60
73936;BME280;62287;50.858;0.252;2023-04-15T02:21:35;100675.93;;;12.77;37.48
73936;BME280;62287;50.858;0.252;2023-04-15T02:22:06;100678.57;;;13.71;37.18
73936;BME280;62287;50.858;0.252;2023-04-15T02:22:37;100676.04;;;12.89;37.47
73936;BME280;62287;50.858;0.252;2023-04-15T02:23:08;100676.76;;;13.05;37.67
73936;BME280;62287;50.858;0.252;2023-04-15T02:23:39;100676.33;;;13.15;37.52
73936;BME280;62287;50.858;0.252;2023-04-15T02:24:10;100675.81;;;12.34;37.79
73936;BME280;62287;50.858;0.252;2023-04-15T02:24:41;100676.38;;;12.38;37.75
73936;BME280;62287;50.858;0.252;2023-04-15T02:25:12;100676.82;;;13.37;37.40
73936;BME280;62287;50.858;0.252;2023-04-15T02:25:43;100676.26;;;12.76;37.56
73936;BME280;62287;50.858;0.252;2023-04-15T02:26:14;100677.94;;;12.55;37.80
73936;BME280;62287;50.858;0.252;2023-04-15T02:26:45;100678.50;;;12.04;37.98
73936;BME280;62287;50.858;0.252;2023-04-15T02:27:16;100682.33;;;11.89;38.15
73936;BME280;62287;50.858;0.252;2023-04-15T02:27:48;100681.56;;;12.37;37.98
73936;BME280;62287;50.858;0.252;2023-04-15T02:28:19;100681.45;;;11.84;38.09
73936;BME280;62287;50.858;0.252;2023-04-15T02:28:50;100679.33;;;12.57;37.98
73936;BME280;62287;50.858;0.252;2023-04-15T02:29:21;100682.43;;;12.36;38.29
73936;BME280;62287;50.858;0.252;2023-04-15T02:29:52;100681.33;;;12.67;38.22
73936;BME280;62287;50.858;0.252;2023-04-15T02:30:23;100678.60;;;12.60;38.10
73936;BME280;62287;50.858;0.252;2023-04-15T02:30:54;100679.93;;;12.05;38.37
73936;BME280;62287;50.858;0.252;2023-04-15T02:31:25;100679.45;;;11.78;38.25
73936;BME280;62287;50.858;0.252;2023-04-15T02:32:01;100679.09;;;12.02;38.33
73936;BME280;62287;50.858;0.252;2023-04-15T02:32:32;100679.90;;;11.80;38.20
73936;BME280;62287;50.858;0.252;2023-04-15T02:33:03;100678.77;;;12.81;38.03
73936;BME280;62287;50.858;0.252;2023-04-15T02:33:34;100681.09;;;12.53;38.11
73936;BME280;62287;50.858;0.252;2023-04-15T02:34:05;100681.00;;;12.52;38.24
73936;BME280;62287;50.858;0.252;2023-04-15T02:34:36;100682.94;;;12.51;38.37
73936;BME280;62287;50.858;0.252;2023-04-15T02:35:07;100686.64;;;12.45;38.39
73936;BME280;62287;50.858;0.252;2023-04-15T02:35:39;100683.91;;;12.50;38.34
73936;BME280;62287;50.858;0.252;2023-04-15T02:36:10;100686.75;;;12.35;38.20
73936;BME280;62287;50.858;0.252;2023-04-15T02:36:41;100686.38;;;12.35;38.09
73936;BME280;62287;50.858;0.252;2023-04-15T02:37:13;100687.63;;;12.64;38.20
73936;BME280;62287;50.858;0.252;2023-04-15T02:37:44;100688.70;;;12.38;38.28
73936;BME280;62287;50.858;0.252;2023-04-15T02:38:15;100689.05;;;12.39;38.49
73936;BME280;62287;50.858;0.252;2023-04-15T02:38:46;100691.55;;;11.67;38.74
73936;BME280;62287;50.858;0.252;2023-04-15T02:39:17;100693.25;;;12.15;38.78
73936;BME280;62287;50.858;0.252;2023-04-15T02:39:48;100697.44;;;12.12;38.66
73936;BME280;62287;50.858;0.252;2023-04-15T02:40:19;100698.58;;;11.66;38.83
73936;BME280;62287;50.858;0.252;2023-04-15T02:40:50;100699.29;;;12.36;38.53
73936;BME280;62287;50.858;0.252;2023-04-15T02:41:21;100699.70;;;12.51;38.42
73936;BME280;62287;50.858;0.252;2023-04-15T02:41:52;100700.25;;;11.96;38.77
73936;BME280;62287;50.858;0.252;2023-04-15T02:42:23;100700.50;;;12.16;38.41
73936;BME280;62287;50.858;0.252;2023-04-15T02:42:54;100700.78;;;12.45;38.40
73936;BME280;62287;50.858;0.252;2023-04-15T02:43:24;100702.87;;;12.51;38.41